FGBT

Bata Airport

Equatorial Guinea
METAR FGBT 092100Z 09002KT 9999 FEW010 26/26 Q1015
Observed Flight Rules
Dec-9 @ 21:00 UTC (41 minutes ago) Visual Flight Rules
Wind Visibility Clouds
90° at 2 knots 10,000+ meters
  • Few at 1,000' AGL
Temperatures Readings
Current 26°C / 79°F
Dewpoint 26°C / 79°F
Humidity 100%
Altimeter 29.97" Hg
Pressure 1015 hPa
Elevation 8
METAR FGBT 092100Z 09002KT 9999 FEW010 26/26 Q1015
Observed Flight Rules
Dec-9 @ 21:00 UTC
(41 minutes ago)
VFR
Wind Visibility
90° at 2 knots 10,000+ meters
Clouds
  • Few at 1,000' AGL
Temperature Dewpoint
26°C / 79°F 26°C / 79°F
Humidity Altimeter Pressure
100% 29.97" Hg 1015 hPa